Time;durP1;ratioP1;P1;durP2;ratioP2;P2;SDS_P1;SDS_P2;PMS_P1;PMS_P2;Temp;Humidity;BMP_temperature;BMP_pressure;BME280_temperature;BME280_humidity;BME280_pressure;Samples;Min_cycle;Max_cycle;Signal;HPM_P1;HPM_P2
2021/01/28 00:02:00;;;;;;;14.07;9.70;;;3.90;99.90;;;;;;5092507;28;20021;-62
2021/01/28 00:04:26;;;;;;;14.88;9.90;;;3.90;99.90;;;;;;5093805;28;20077;-61
2021/01/28 00:06:51;;;;;;;15.60;10.48;;;3.90;99.90;;;;;;5095540;28;20024;-62
2021/01/28 00:09:17;;;;;;;11.98;9.50;;;3.90;99.90;;;;;;5095513;28;20385;-62
2021/01/28 00:11:43;;;;;;;14.45;9.25;;;3.90;99.90;;;;;;5094790;28;20027;-60
2021/01/28 00:14:09;;;;;;;12.23;9.25;;;3.90;99.90;;;;;;5093799;28;20040;-60
2021/01/28 00:16:34;;;;;;;13.00;9.27;;;4.00;99.90;;;;;;5094361;28;20150;-60
2021/01/28 00:19:00;;;;;;;16.77;10.07;;;3.80;99.90;;;;;;5093899;28;20074;-61
2021/01/28 00:21:26;;;;;;;14.05;10.75;;;3.80;99.90;;;;;;5095236;28;20073;-63
2021/01/28 00:23:51;;;;;;;12.07;8.77;;;3.70;99.90;;;;;;5094408;28;20402;-61
2021/01/28 00:26:18;;;;;;;12.73;9.55;;;3.70;99.90;;;;;;5095720;28;20062;-61
2021/01/28 00:28:44;;;;;;;12.70;10.23;;;3.70;99.90;;;;;;5095116;28;20035;-66
2021/01/28 00:31:10;;;;;;;13.93;10.13;;;3.70;99.90;;;;;;5097223;28;20028;-61
2021/01/28 00:33:36;;;;;;;13.45;9.85;;;3.70;99.90;;;;;;5093201;28;20028;-61
2021/01/28 00:36:04;;;;;;;15.43;10.82;;;3.80;99.90;;;;;;5075415;28;20068;-62
2021/01/28 00:38:32;;;;;;;14.60;10.65;;;3.80;99.90;;;;;;5074120;28;20037;-61
2021/01/28 00:40:58;;;;;;;16.60;10.82;;;3.80;99.90;;;;;;5079202;28;20110;-61
2021/01/28 00:43:25;;;;;;;15.90;10.77;;;3.70;99.90;;;;;;5094915;28;20066;-66
2021/01/28 00:45:55;;;;;;;19.92;11.80;;;3.70;99.90;;;;;;5094051;28;20028;-61
2021/01/28 00:48:24;;;;;;;15.18;11.18;;;3.70;99.90;;;;;;5094803;28;20036;-62
2021/01/28 00:50:49;;;;;;;14.88;10.30;;;3.70;99.90;;;;;;5093093;28;20046;-62
2021/01/28 00:53:16;;;;;;;15.02;10.48;;;3.70;99.90;;;;;;5094164;28;20028;-60
2021/01/28 00:55:43;;;;;;;17.77;12.02;;;3.60;99.90;;;;;;5093693;28;20051;-61
2021/01/28 00:58:09;;;;;;;16.88;10.75;;;3.70;99.90;;;;;;5094932;28;20028;-60
2021/01/28 01:00:38;;;;;;;14.90;10.40;;;3.60;99.90;;;;;;5092841;28;20465;-62
2021/01/28 01:03:05;;;;;;;19.77;11.35;;;3.70;99.90;;;;;;5093233;28;20024;-60
2021/01/28 01:05:32;;;;;;;15.63;11.07;;;3.70;99.90;;;;;;5092389;28;20085;-60
2021/01/28 01:08:00;;;;;;;14.73;11.93;;;3.70;99.90;;;;;;5095236;28;20099;-61
2021/01/28 01:10:42;;;;;;;19.17;12.38;;;3.80;99.90;;;;;;5091817;28;20024;-67
2021/01/28 01:13:10;;;;;;;17.27;11.82;;;3.70;99.90;;;;;;5073033;28;20474;-60
2021/01/28 01:15:36;;;;;;;18.77;12.02;;;3.80;99.90;;;;;;5064449;28;20055;-61
2021/01/28 01:18:03;;;;;;;15.70;12.02;;;3.70;99.90;;;;;;5092728;28;20024;-60
2021/01/28 01:20:29;;;;;;;19.00;13.52;;;3.70;99.90;;;;;;5093427;28;20069;-66
2021/01/28 01:22:55;;;;;;;15.73;11.57;;;3.80;99.90;;;;;;5093150;28;20028;-62
2021/01/28 01:25:21;;;;;;;18.98;12.20;;;3.90;99.90;;;;;;5093020;28;20032;-65
2021/01/28 01:27:47;;;;;;;19.30;11.90;;;3.90;99.90;;;;;;5093582;28;20028;-60
2021/01/28 01:30:15;;;;;;;19.40;13.30;;;3.90;99.90;;;;;;5093736;28;20354;-59
2021/01/28 01:32:40;;;;;;;16.70;12.63;;;3.90;99.90;;;;;;5093967;28;20067;-67
2021/01/28 01:35:07;;;;;;;18.13;12.88;;;4.00;99.90;;;;;;5093878;28;20067;-59
2021/01/28 01:37:33;;;;;;;20.38;12.82;;;4.00;99.90;;;;;;5091902;28;20032;-61
2021/01/28 01:39:58;;;;;;;22.10;14.48;;;3.90;99.90;;;;;;5094592;28;20049;-61
2021/01/28 01:42:24;;;;;;;17.92;11.98;;;4.00;99.90;;;;;;5095300;28;20106;-62
2021/01/28 01:44:50;;;;;;;19.63;13.82;;;3.90;99.90;;;;;;5094106;28;20445;-63
2021/01/28 01:47:32;;;;;;;18.40;11.68;;;4.00;99.90;;;;;;5093770;28;20031;-66
2021/01/28 01:49:58;;;;;;;;;;;3.90;99.90;;;;;;5095552;28;20507;-61
2021/01/28 01:52:27;;;;;;;18.70;12.55;;;3.90;99.90;;;;;;5094526;28;20007;-60
2021/01/28 01:54:53;;;;;;;19.10;13.30;;;3.90;99.90;;;;;;5095192;28;20028;-61
2021/01/28 01:57:25;;;;;;;19.80;12.60;;;3.90;99.90;;;;;;5095245;28;20030;-62
2021/01/28 01:59:56;;;;;;;17.25;12.05;;;4.00;99.90;;;;;;5093698;28;20024;-59
2021/01/28 02:02:23;;;;;;;20.20;13.52;;;3.90;99.90;;;;;;5094608;28;20105;-62
2021/01/28 02:04:55;;;;;;;18.42;12.65;;;4.00;99.90;;;;;;5093308;28;20614;-64
2021/01/28 02:07:22;;;;;;;;;;;3.90;99.90;;;;;;5094962;28;20047;-61
2021/01/28 02:09:49;;;;;;;15.60;11.40;;;3.90;99.90;;;;;;5093374;28;19908;-64
2021/01/28 02:12:15;;;;;;;20.65;11.45;;;3.80;99.90;;;;;;5094201;28;20039;-61
2021/01/28 02:14:42;;;;;;;21.80;12.32;;;3.80;99.90;;;;;;5094786;28;20070;-60
2021/01/28 02:17:20;;;;;;;19.92;12.30;;;3.80;99.90;;;;;;5094648;28;20039;-62
2021/01/28 02:19:52;;;;;;;19.70;12.70;;;3.80;99.90;;;;;;5093607;28;20032;-61
2021/01/28 02:22:27;;;;;;;20.70;13.55;;;3.80;99.90;;;;;;5094546;28;20023;-64
2021/01/28 02:25:25;;;;;;;29.13;13.25;;;3.70;99.90;;;;;;5092749;28;20027;-59
2021/01/28 02:27:54;;;;;;;18.13;12.82;;;3.70;99.90;;;;;;5092200;28;20036;-60
2021/01/28 02:30:24;;;;;;;17.70;12.40;;;3.60;99.90;;;;;;5093538;28;20415;-59
2021/01/28 02:32:50;;;;;;;18.42;13.35;;;3.60;99.90;;;;;;5093838;28;20160;-60
2021/01/28 02:35:20;;;;;;;17.23;12.65;;;3.60;99.90;;;;;;5093675;28;20109;-62
2021/01/28 02:37:47;;;;;;;18.90;12.50;;;3.60;99.90;;;;;;5092718;28;20170;-60
2021/01/28 02:40:14;;;;;;;20.98;14.07;;;3.60;99.90;;;;;;5094570;28;20024;-59
2021/01/28 02:42:40;;;;;;;21.25;14.02;;;3.60;99.90;;;;;;5090875;28;20114;-61
2021/01/28 02:45:07;;;;;;;19.20;13.43;;;3.60;99.90;;;;;;5092466;28;20117;-61
2021/01/28 02:47:32;;;;;;;21.40;14.32;;;3.60;99.90;;;;;;5093971;28;20035;-65
2021/01/28 02:49:59;;;;;;;17.13;12.15;;;3.60;99.90;;;;;;5093424;28;20103;-61
2021/01/28 02:52:24;;;;;;;20.58;14.07;;;3.70;99.90;;;;;;5094494;28;20046;-59
2021/01/28 02:54:53;;;;;;;18.73;13.15;;;3.80;99.90;;;;;;5091822;28;20532;-60
2021/01/28 02:57:19;;;;;;;21.45;14.57;;;3.70;99.90;;;;;;5093072;28;20385;-62
2021/01/28 02:59:45;;;;;;;19.48;13.52;;;3.70;99.90;;;;;;5090871;28;20028;-61
2021/01/28 03:02:13;;;;;;;21.65;13.05;;;3.70;99.90;;;;;;5092512;28;20035;-60
2021/01/28 03:04:39;;;;;;;21.90;14.23;;;3.70;99.90;;;;;;5090736;28;20028;-60
2021/01/28 03:07:07;;;;;;;20.98;14.55;;;3.70;99.90;;;;;;5091527;28;20030;-62
2021/01/28 03:09:33;;;;;;;19.88;13.48;;;3.70;99.90;;;;;;5092413;28;20543;-65
2021/01/28 03:11:59;;;;;;;19.65;13.10;;;3.80;99.90;;;;;;5090860;28;20032;-59
2021/01/28 03:14:25;;;;;;;19.05;12.98;;;3.80;99.90;;;;;;5092555;28;20032;-59
2021/01/28 03:16:50;;;;;;;20.88;13.77;;;3.80;99.90;;;;;;5090345;28;20567;-60
2021/01/28 03:19:21;;;;;;;19.98;13.70;;;3.70;99.90;;;;;;5092769;28;20025;-60
2021/01/28 03:21:47;;;;;;;21.45;13.70;;;3.70;99.90;;;;;;5091853;28;20028;-64
2021/01/28 03:24:13;;;;;;;19.48;12.15;;;3.80;99.90;;;;;;5092819;28;20059;-61
2021/01/28 03:26:40;;;;;;;19.17;13.02;;;3.80;99.90;;;;;;5081629;28;20044;-60
2021/01/28 03:29:07;;;;;;;18.98;13.65;;;3.80;99.90;;;;;;5071121;28;20032;-59
2021/01/28 03:31:34;;;;;;;23.15;13.90;;;3.80;99.90;;;;;;5070355;28;20055;-67
2021/01/28 03:34:00;;;;;;;23.13;15.73;;;3.70;99.90;;;;;;5071054;28;20035;-59
2021/01/28 03:36:26;;;;;;;19.27;13.40;;;3.80;99.90;;;;;;5075166;28;20554;-61
2021/01/28 03:38:52;;;;;;;22.13;13.48;;;3.80;99.90;;;;;;5091675;28;20052;-59
2021/01/28 03:41:18;;;;;;;21.17;14.43;;;3.70;99.90;;;;;;5093608;28;20028;-61
2021/01/28 03:43:43;;;;;;;21.98;15.60;;;3.60;99.90;;;;;;5095719;28;20111;-62
2021/01/28 03:46:09;;;;;;;20.35;14.13;;;3.70;99.90;;;;;;5078438;28;20029;-59
2021/01/28 03:48:36;;;;;;;22.08;15.18;;;3.80;99.90;;;;;;5074774;28;20370;-70
2021/01/28 03:51:03;;;;;;;25.23;15.40;;;3.80;99.90;;;;;;5076209;28;20020;-63
2021/01/28 03:53:28;;;;;;;25.98;17.30;;;3.70;99.90;;;;;;5058914;28;20025;-61
2021/01/28 03:55:54;;;;;;;24.30;15.32;;;3.80;99.90;;;;;;5075493;28;20500;-60
2021/01/28 03:58:20;;;;;;;25.15;16.95;;;3.80;99.90;;;;;;5076018;28;20029;-60
2021/01/28 04:00:46;;;;;;;23.70;16.10;;;3.70;99.90;;;;;;5075472;28;20485;-60
2021/01/28 04:03:11;;;;;;;27.83;16.40;;;3.70;99.90;;;;;;5075346;28;20131;-60
2021/01/28 04:05:37;;;;;;;27.70;17.25;;;3.70;99.90;;;;;;5074555;28;20505;-68
2021/01/28 04:08:03;;;;;;;25.48;16.05;;;3.70;99.90;;;;;;5075227;28;20105;-60
2021/01/28 04:10:33;;;;;;;24.52;16.48;;;3.80;99.90;;;;;;5075283;28;20024;-60
2021/01/28 04:13:00;;;;;;;26.13;17.48;;;3.80;99.90;;;;;;5074523;28;20853;-61
2021/01/28 04:15:25;;;;;;;30.58;18.52;;;3.80;99.90;;;;;;5073297;28;20080;-63
2021/01/28 04:17:52;;;;;;;30.45;18.45;;;3.80;99.90;;;;;;5073293;28;20025;-61
2021/01/28 04:20:20;;;;;;;28.88;17.42;;;3.80;99.90;;;;;;5075128;28;20016;-61
2021/01/28 04:22:46;;;;;;;25.85;16.90;;;3.80;99.90;;;;;;5073686;28;20029;-62
2021/01/28 04:25:16;;;;;;;29.38;18.58;;;3.90;99.90;;;;;;5073686;28;20016;-59
2021/01/28 04:27:42;;;;;;;27.63;17.80;;;3.90;99.90;;;;;;5073460;28;20024;-61
2021/01/28 04:30:12;;;;;;;31.48;18.48;;;3.90;99.90;;;;;;5075251;28;20051;-61
2021/01/28 04:32:38;;;;;;;25.67;16.88;;;3.90;99.90;;;;;;5073827;28;20078;-65
2021/01/28 04:35:06;;;;;;;29.70;18.58;;;3.90;99.90;;;;;;5074611;28;20060;-60
2021/01/28 04:37:32;;;;;;;30.17;17.70;;;3.90;99.90;;;;;;5093200;28;20043;-62
2021/01/28 04:39:58;;;;;;;29.90;18.73;;;3.90;99.90;;;;;;5094879;28;20016;-63
2021/01/28 04:42:38;;;;;;;29.45;17.50;;;3.90;99.90;;;;;;5092622;28;20385;-59
2021/01/28 04:45:05;;;;;;;28.17;17.23;;;3.90;99.90;;;;;;5095418;28;20371;-62
2021/01/28 04:47:31;;;;;;;29.63;16.75;;;3.90;99.90;;;;;;5095618;28;20111;-59
2021/01/28 04:49:59;;;;;;;29.63;18.30;;;3.90;99.90;;;;;;5094681;28;20124;-61
2021/01/28 04:52:28;;;;;;;28.23;17.50;;;3.90;99.90;;;;;;5094374;28;20064;-62
2021/01/28 04:54:56;;;;;;;29.20;17.30;;;3.90;99.90;;;;;;5095253;28;20501;-59
2021/01/28 04:57:22;;;;;;;30.30;18.27;;;3.90;99.90;;;;;;5095218;28;20032;-60
2021/01/28 04:59:50;;;;;;;32.13;19.05;;;3.90;99.90;;;;;;5094101;28;20027;-63
2021/01/28 05:02:20;;;;;;;32.65;18.70;;;3.90;99.90;;;;;;5093559;28;20521;-60
2021/01/28 05:04:58;;;;;;;31.75;18.52;;;3.80;99.90;;;;;;5093237;28;20114;-61
2021/01/28 05:07:30;;;;;;;33.83;19.60;;;3.80;99.90;;;;;;5093383;28;20047;-60
2021/01/28 05:10:02;;;;;;;;;;;3.90;99.90;;;;;;5094445;28;20079;-62
2021/01/28 05:12:28;;;;;;;29.33;18.40;;;3.90;99.90;;;;;;5093550;28;19907;-61
2021/01/28 05:15:20;;;;;;;36.08;20.60;;;3.90;99.90;;;;;;5095071;28;20066;-64
2021/01/28 05:17:57;;;;;;;;;;;3.90;99.90;;;;;;5094860;28;20031;-64
2021/01/28 05:20:24;;;;;;;29.75;17.85;;;3.90;99.90;;;;;;5094270;28;19904;-61
2021/01/28 05:23:09;;;;;;;36.22;17.77;;;3.90;99.90;;;;;;5094977;28;20031;-60
2021/01/28 05:25:39;;;;;;;29.55;17.13;;;3.90;99.90;;;;;;5094936;28;20028;-62
2021/01/28 05:28:29;;;;;;;31.33;19.52;;;3.90;99.90;;;;;;5093294;28;20060;-62
2021/01/28 05:30:55;;;;;;;31.10;18.27;;;4.00;99.90;;;;;;5093197;28;20382;-62
2021/01/28 05:33:28;;;;;;;28.15;17.52;;;4.00;99.90;;;;;;5092048;28;20046;-61
2021/01/28 05:36:11;;;;;;;30.95;17.45;;;4.00;99.90;;;;;;5092035;28;20122;-61
2021/01/28 05:38:41;;;;;;;31.85;19.23;;;4.00;99.90;;;;;;5072455;28;20036;-63
2021/01/28 05:41:10;;;;;;;29.90;17.90;;;4.00;99.90;;;;;;5071791;28;20106;-65
2021/01/28 05:43:40;;;;;;;31.95;18.30;;;4.10;99.90;;;;;;5073445;28;20024;-61
2021/01/28 05:46:32;;;;;;;36.17;18.15;;;4.10;99.90;;;;;;5073477;28;20033;-60
2021/01/28 05:49:10;;;;;;;30.02;17.02;;;4.10;99.90;;;;;;5065981;28;20028;-67
2021/01/28 05:51:41;;;;;;;26.75;17.15;;;4.20;99.90;;;;;;5074762;28;20031;-62
2021/01/28 05:54:26;;;;;;;31.00;18.20;;;4.20;99.90;;;;;;5074479;28;20082;-65
2021/01/28 05:57:07;;;;;;;27.67;18.17;;;4.20;99.90;;;;;;5074456;28;20037;-63
2021/01/28 06:00:05;;;;;;;31.25;18.10;;;4.10;99.90;;;;;;5079781;28;20020;-63
2021/01/28 06:02:44;;;;;;;28.92;16.80;;;4.10;99.90;;;;;;5049961;28;20038;-63
2021/01/28 06:05:56;;;;;;;30.50;16.67;;;4.10;99.90;;;;;;5094134;28;20512;-61
2021/01/28 06:08:40;;;;;;;31.85;17.15;;;4.10;99.90;;;;;;5034070;28;20040;-63
2021/01/28 06:11:43;;;;;;;26.35;15.45;;;4.10;99.90;;;;;;5094624;28;20032;-62
2021/01/28 06:14:49;;;;;;;25.48;14.55;;;4.00;99.90;;;;;;5094062;28;20032;-61
2021/01/28 06:17:23;;;;;;;22.02;13.82;;;4.10;99.90;;;;;;5065836;28;20052;-65
2021/01/28 06:20:07;;;;;;;26.02;15.05;;;4.10;99.90;;;;;;5093739;28;20461;-62
2021/01/28 06:22:52;;;;;;;22.73;14.13;;;4.10;99.90;;;;;;5092764;28;20031;-62
2021/01/28 06:25:49;;;;;;;23.50;13.05;;;4.10;99.90;;;;;;5081880;28;20032;-62
2021/01/28 06:28:15;;;;;;;22.58;14.30;;;4.10;99.90;;;;;;5072721;28;20062;-60
2021/01/28 06:30:55;;;;;;;19.92;12.68;;;4.20;99.90;;;;;;5073606;28;20469;-62
2021/01/28 06:33:27;;;;;;;18.75;11.95;;;4.20;99.90;;;;;;5074189;28;20023;-62
2021/01/28 06:36:17;;;;;;;21.02;13.48;;;4.20;99.90;;;;;;5073280;28;20112;-65
2021/01/28 06:38:59;;;;;;;19.65;12.38;;;4.20;99.90;;;;;;5074636;28;20032;-66
2021/01/28 06:41:30;;;;;;;19.33;11.90;;;4.30;99.90;;;;;;5081575;28;20016;-61
2021/01/28 06:44:05;;;;;;;20.58;13.38;;;4.30;99.90;;;;;;5094146;28;20032;-65
2021/01/28 06:46:49;;;;;;;18.25;12.63;;;4.30;99.90;;;;;;5094679;28;20097;-62
2021/01/28 06:49:20;;;;;;;18.98;12.23;;;4.30;99.90;;;;;;5094238;28;20030;-64
2021/01/28 06:52:14;;;;;;;20.80;12.85;;;4.20;99.90;;;;;;5093517;28;20110;-67
2021/01/28 06:55:00;;;;;;;20.08;13.23;;;4.30;99.90;;;;;;5078265;28;20043;-63
2021/01/28 06:57:37;;;;;;;21.20;13.00;;;4.30;99.90;;;;;;5092294;28;20024;-61
2021/01/28 07:00:09;;;;;;;21.15;11.73;;;4.30;99.90;;;;;;5093144;28;20100;-63
2021/01/28 07:02:56;;;;;;;18.20;12.50;;;4.40;99.90;;;;;;5093429;28;20053;-61
2021/01/28 07:05:58;;;;;;;20.02;12.48;;;4.30;99.90;;;;;;5092388;28;20032;-66
2021/01/28 07:08:30;;;;;;;16.65;11.20;;;4.40;99.90;;;;;;5040613;28;20043;-62
2021/01/28 07:10:56;;;;;;;22.50;13.02;;;4.30;99.90;;;;;;5090696;28;20028;-62
2021/01/28 07:13:33;;;;;;;19.17;11.73;;;4.40;99.90;;;;;;5091519;28;20036;-65
2021/01/28 07:16:13;;;;;;;16.42;11.25;;;4.30;99.90;;;;;;5093181;28;20056;-62
2021/01/28 07:18:47;;;;;;;17.92;12.05;;;4.40;99.90;;;;;;5079558;28;20029;-62
2021/01/28 07:21:34;;;;;;;19.38;12.48;;;4.40;99.90;;;;;;5097081;28;20028;-63
2021/01/28 07:24:12;;;;;;;17.92;11.32;;;4.50;99.90;;;;;;5095432;28;20028;-62
2021/01/28 07:26:51;;;;;;;16.70;10.95;;;4.50;99.90;;;;;;5095263;28;20031;-62
2021/01/28 07:29:45;;;;;;;18.17;11.60;;;4.60;99.90;;;;;;5096710;28;20020;-61
2021/01/28 07:32:33;;;;;;;16.83;11.02;;;4.60;99.90;;;;;;5095022;28;20031;-65
2021/01/28 07:35:27;;;;;;;15.93;10.88;;;4.50;99.90;;;;;;5092335;28;20028;-63
2021/01/28 07:37:54;;;;;;;16.40;10.77;;;4.60;99.90;;;;;;5093671;28;20122;-65
2021/01/28 07:40:57;;;;;;;17.35;10.30;;;4.70;99.90;;;;;;5092675;28;20016;-62
2021/01/28 07:43:27;;;;;;;14.07;10.20;;;4.60;99.90;;;;;;5087833;28;20062;-61
2021/01/28 07:46:27;;;;;;;16.55;11.70;;;4.50;99.90;;;;;;5096229;28;20028;-62
2021/01/28 07:49:19;;;;;;;14.35;10.00;;;4.60;99.90;;;;;;5095973;28;20031;-63
2021/01/28 07:51:58;;;;;;;16.60;10.32;;;4.70;99.90;;;;;;5095382;28;20028;-62
2021/01/28 07:54:24;;;;;;;13.73;9.88;;;4.50;99.90;;;;;;5090162;28;20123;-63
2021/01/28 07:57:01;;;;;;;18.88;11.20;;;4.60;99.90;;;;;;5093221;28;20111;-68
2021/01/28 07:59:38;;;;;;;12.50;8.63;;;4.60;99.90;;;;;;5090427;28;20095;-62
2021/01/28 08:02:13;;;;;;;13.82;9.48;;;4.70;99.90;;;;;;5096056;28;20028;-62
2021/01/28 08:04:56;;;;;;;14.40;9.88;;;4.70;99.90;;;;;;5094153;28;20059;-63
2021/01/28 08:07:29;;;;;;;13.60;9.82;;;4.50;99.90;;;;;;5091600;28;20415;-63
2021/01/28 08:09:57;;;;;;;13.95;9.25;;;4.60;99.90;;;;;;5089693;28;20028;-62
2021/01/28 08:12:34;;;;;;;14.27;8.50;;;4.60;99.90;;;;;;5091960;28;20032;-63
2021/01/28 08:15:10;;;;;;;12.57;9.18;;;4.60;99.90;;;;;;5088315;28;20086;-64
2021/01/28 08:17:36;;;;;;;12.23;8.10;;;4.60;99.90;;;;;;5081497;28;20035;-63
2021/01/28 08:20:24;;;;;;;14.73;8.27;;;4.70;99.90;;;;;;5092969;28;20024;-62
2021/01/28 08:23:04;;;;;;;12.82;8.60;;;4.80;99.90;;;;;;5093058;28;20028;-63
2021/01/28 08:25:36;;;;;;;13.68;8.20;;;4.80;99.90;;;;;;5098092;28;20027;-66
2021/01/28 08:28:14;;;;;;;10.77;8.13;;;4.80;99.90;;;;;;5086398;28;20031;-63
2021/01/28 08:30:42;;;;;;;10.98;6.75;;;4.80;99.90;;;;;;5089946;28;20020;-61
2021/01/28 08:33:22;;;;;;;9.13;6.97;;;4.90;99.90;;;;;;5092325;28;20024;-63
2021/01/28 08:35:54;;;;;;;10.25;7.05;;;5.00;99.90;;;;;;5094445;28;20024;-63
2021/01/28 08:38:30;;;;;;;8.27;6.45;;;4.90;99.90;;;;;;5071644;28;20032;-63
2021/01/28 08:41:16;;;;;;;8.15;5.68;;;4.90;99.90;;;;;;5090941;28;20032;-66
2021/01/28 08:43:43;;;;;;;8.45;6.05;;;4.80;99.90;;;;;;5093129;28;20024;-63
2021/01/28 08:46:19;;;;;;;11.00;6.57;;;4.90;99.90;;;;;;5087509;28;20437;-61
2021/01/28 08:48:46;;;;;;;9.57;6.57;;;4.90;99.90;;;;;;5091051;28;20485;-64
2021/01/28 08:51:24;;;;;;;9.88;7.40;;;4.90;99.90;;;;;;5092480;28;20026;-61
2021/01/28 08:54:19;;;;;;;10.13;6.05;;;4.90;99.90;;;;;;5074551;28;20036;-68
2021/01/28 08:56:49;;;;;;;7.80;5.47;;;5.00;99.90;;;;;;5073024;28;20032;-61
2021/01/28 08:59:18;;;;;;;8.88;6.35;;;5.00;99.90;;;;;;5074818;28;20089;-64
2021/01/28 09:01:51;;;;;;;9.02;6.10;;;5.10;99.90;;;;;;5093095;28;20024;-63
2021/01/28 09:04:45;;;;;;;6.25;5.20;;;5.10;99.90;;;;;;5092477;28;20086;-61
2021/01/28 09:07:11;;;;;;;7.63;5.80;;;5.10;99.90;;;;;;5089442;28;20562;-64
2021/01/28 09:09:37;;;;;;;5.93;5.07;;;5.10;99.90;;;;;;5072532;28;20027;-62
2021/01/28 09:12:23;;;;;;;8.60;6.43;;;5.20;99.90;;;;;;5086836;28;20028;-62
2021/01/28 09:14:49;;;;;;;8.57;6.43;;;5.30;99.90;;;;;;5092734;28;20066;-62
2021/01/28 09:17:21;;;;;;;7.85;5.90;;;5.30;99.90;;;;;;5091945;28;20034;-63
2021/01/28 09:19:59;;;;;;;8.23;5.57;;;5.30;99.90;;;;;;5092942;28;20473;-61
2021/01/28 09:22:37;;;;;;;5.97;5.25;;;5.40;99.90;;;;;;5093928;28;20059;-66
2021/01/28 09:25:21;;;;;;;6.90;5.50;;;5.30;99.90;;;;;;5092525;28;20038;-62
2021/01/28 09:28:19;;;;;;;9.88;6.10;;;5.20;99.90;;;;;;5094613;28;20024;-63
2021/01/28 09:30:47;;;;;;;8.65;5.20;;;5.20;99.90;;;;;;5083764;28;20035;-62
2021/01/28 09:33:29;;;;;;;6.80;5.15;;;5.10;99.90;;;;;;5094014;28;20036;-63
2021/01/28 09:36:40;;;;;;;6.90;5.50;;;5.10;99.90;;;;;;5091716;28;20028;-68
2021/01/28 09:39:20;;;;;;;6.47;5.47;;;5.10;99.90;;;;;;5087342;28;20047;-63
2021/01/28 09:41:50;;;;;;;7.53;5.55;;;5.20;99.90;;;;;;5090510;28;20103;-63
2021/01/28 09:44:49;;;;;;;6.72;4.80;;;5.20;99.90;;;;;;5071521;28;20029;-63
2021/01/28 09:47:24;;;;;;;6.32;4.75;;;5.30;99.90;;;;;;5071427;28;20062;-62
2021/01/28 09:49:57;;;;;;;6.38;4.28;;;5.20;99.90;;;;;;5083513;28;20070;-64
2021/01/28 09:52:24;;;;;;;5.70;4.15;;;5.30;99.90;;;;;;5089706;28;20196;-63
2021/01/28 09:54:52;;;;;;;7.70;4.32;;;5.30;99.90;;;;;;5093001;28;20085;-61
2021/01/28 09:57:18;;;;;;;7.10;4.65;;;5.40;99.90;;;;;;5091203;28;20029;-63
2021/01/28 09:59:44;;;;;;;4.90;4.07;;;5.40;99.90;;;;;;5093697;28;20020;-63
2021/01/28 10:02:15;;;;;;;6.57;4.63;;;5.40;99.90;;;;;;5093067;28;20024;-63
2021/01/28 10:04:45;;;;;;;6.60;4.70;;;5.40;99.90;;;;;;5094151;28;20032;-62
2021/01/28 10:07:12;;;;;;;4.28;3.88;;;5.30;99.90;;;;;;5092855;28;20032;-61
2021/01/28 10:09:38;;;;;;;5.43;4.10;;;5.40;99.90;;;;;;5092808;28;20023;-61
2021/01/28 10:12:05;;;;;;;5.22;4.38;;;5.50;99.90;;;;;;5091228;28;20031;-62
2021/01/28 10:14:31;;;;;;;4.82;3.65;;;5.50;99.90;;;;;;5091973;28;20449;-63
2021/01/28 10:16:58;;;;;;;5.65;4.50;;;5.40;99.90;;;;;;5092208;28;20052;-67
2021/01/28 10:19:24;;;;;;;5.53;3.50;;;5.50;99.90;;;;;;5092680;28;20068;-62
2021/01/28 10:21:50;;;;;;;5.60;3.67;;;5.40;99.90;;;;;;5093362;28;20028;-62
2021/01/28 10:24:16;;;;;;;4.22;3.70;;;5.50;99.90;;;;;;5091266;28;20039;-62
2021/01/28 10:26:41;;;;;;;4.45;3.22;;;5.60;99.90;;;;;;5093252;28;20024;-63
2021/01/28 10:29:07;;;;;;;4.25;3.85;;;5.60;99.90;;;;;;5091351;28;20024;-63
2021/01/28 10:31:34;;;;;;;4.20;3.40;;;5.50;99.90;;;;;;5094078;28;20426;-62
2021/01/28 10:34:01;;;;;;;5.93;3.00;;;5.60;99.90;;;;;;5092720;28;20028;-63
2021/01/28 10:36:26;;;;;;;4.72;3.85;;;5.60;99.90;;;;;;5093172;28;20085;-61
2021/01/28 10:38:52;;;;;;;5.75;3.50;;;5.70;99.90;;;;;;5090929;28;20032;-61
2021/01/28 10:41:18;;;;;;;6.15;3.15;;;5.50;99.90;;;;;;5089161;28;20031;-63
2021/01/28 10:43:44;;;;;;;3.75;3.20;;;5.60;99.90;;;;;;5090740;28;20035;-63
2021/01/28 10:46:10;;;;;;;5.32;3.60;;;5.70;99.90;;;;;;5090526;28;20039;-61
2021/01/28 10:48:36;;;;;;;5.60;3.42;;;5.70;99.90;;;;;;5092818;28;20032;-63
2021/01/28 10:51:03;;;;;;;5.75;3.03;;;5.70;99.90;;;;;;5090881;28;20533;-62
2021/01/28 10:53:30;;;;;;;3.88;3.00;;;5.80;99.90;;;;;;5090878;28;20058;-61
2021/01/28 10:55:56;;;;;;;4.57;3.08;;;5.80;99.90;;;;;;5091310;28;20036;-66
2021/01/28 10:58:26;;;;;;;3.88;2.95;;;5.80;99.90;;;;;;5091656;28;20111;-62
2021/01/28 11:00:53;;;;;;;4.68;3.30;;;5.90;99.90;;;;;;5092685;28;20024;-62
2021/01/28 11:03:18;;;;;;;3.63;2.92;;;5.80;99.90;;;;;;5094089;28;20024;-61
2021/01/28 11:05:44;;;;;;;4.43;2.80;;;5.80;99.90;;;;;;5093154;28;20028;-62
2021/01/28 11:08:10;;;;;;;4.00;3.08;;;5.80;99.90;;;;;;5091528;28;20108;-62
2021/01/28 11:10:37;;;;;;;4.30;2.80;;;5.90;99.90;;;;;;5090623;28;20024;-62
2021/01/28 11:13:03;;;;;;;6.65;3.25;;;5.90;99.90;;;;;;5089768;28;20032;-61
2021/01/28 11:15:35;;;;;;;3.15;2.80;;;6.00;99.90;;;;;;5092179;28;20082;-65
2021/01/28 11:18:01;;;;;;;3.00;2.70;;;5.90;99.90;;;;;;5089534;28;20039;-67
2021/01/28 11:20:27;;;;;;;4.38;2.63;;;6.00;99.90;;;;;;5089041;28;20111;-62
2021/01/28 11:22:53;;;;;;;3.53;2.38;;;6.00;99.90;;;;;;5092285;28;20048;-63
2021/01/28 11:25:21;;;;;;;4.18;2.95;;;6.00;99.90;;;;;;5090016;28;20036;-64
2021/01/28 11:27:48;;;;;;;4.50;2.92;;;6.10;99.90;;;;;;5081122;28;20036;-61
2021/01/28 11:30:14;;;;;;;4.88;3.03;;;6.00;99.90;;;;;;5077924;28;20054;-60
2021/01/28 11:32:40;;;;;;;5.00;3.20;;;6.10;99.90;;;;;;5091461;28;20373;-62
2021/01/28 11:35:06;;;;;;;3.92;3.08;;;6.00;99.90;;;;;;5091551;28;20030;-63
2021/01/28 11:37:32;;;;;;;4.40;3.03;;;6.10;99.90;;;;;;5090141;28;20035;-62
2021/01/28 11:39:58;;;;;;;5.03;3.78;;;6.00;99.90;;;;;;5091444;28;20024;-62
2021/01/28 11:42:23;;;;;;;4.95;3.65;;;6.10;99.90;;;;;;5089958;28;20039;-62
2021/01/28 11:44:49;;;;;;;5.60;4.05;;;6.10;99.90;;;;;;5092293;28;20453;-61
2021/01/28 11:47:15;;;;;;;6.45;4.00;;;6.20;99.90;;;;;;5090057;28;20086;-63
2021/01/28 11:49:43;;;;;;;5.18;4.35;;;6.20;99.90;;;;;;5092871;28;20370;-66
2021/01/28 11:52:08;;;;;;;5.50;4.25;;;6.20;99.90;;;;;;5090451;28;20034;-62
2021/01/28 11:54:35;;;;;;;7.93;5.25;;;6.20;99.90;;;;;;5091745;28;20063;-64
2021/01/28 11:57:00;;;;;;;5.50;4.50;;;6.30;99.90;;;;;;5091556;28;20070;-67
2021/01/28 11:59:26;;;;;;;11.70;4.35;;;6.40;99.90;;;;;;5091272;28;20046;-67
2021/01/28 12:01:52;;;;;;;12.77;5.25;;;6.40;99.90;;;;;;5094899;28;20036;-65
2021/01/28 12:04:18;;;;;;;7.70;4.00;;;6.40;99.90;;;;;;5095712;28;20088;-62
2021/01/28 12:06:44;;;;;;;5.10;4.30;;;6.50;99.90;;;;;;5095446;28;20031;-62
2021/01/28 12:09:10;;;;;;;4.50;4.10;;;6.50;99.90;;;;;;5093969;28;20024;-65
2021/01/28 12:11:36;;;;;;;3.45;3.15;;;6.60;99.90;;;;;;5087236;28;20118;-62
2021/01/28 12:14:02;;;;;;;5.28;3.33;;;6.60;99.90;;;;;;5085616;28;20032;-67
2021/01/28 12:16:28;;;;;;;3.67;3.22;;;6.50;99.90;;;;;;5093711;28;20052;-61
2021/01/28 12:18:54;;;;;;;4.72;3.20;;;6.60;99.90;;;;;;5093764;28;20089;-61
2021/01/28 12:21:20;;;;;;;3.72;3.15;;;6.50;99.90;;;;;;5093422;28;20028;-68
2021/01/28 12:23:46;;;;;;;5.68;3.45;;;6.60;99.90;;;;;;5095296;28;20103;-65
2021/01/28 12:26:12;;;;;;;4.97;3.17;;;6.60;99.90;;;;;;5095485;28;20073;-63
2021/01/28 12:28:38;;;;;;;4.88;3.63;;;6.60;99.90;;;;;;5095187;28;20016;-70
2021/01/28 12:31:04;;;;;;;5.72;3.40;;;6.60;99.90;;;;;;5094261;28;20034;-65
2021/01/28 12:33:30;;;;;;;6.32;3.25;;;6.70;99.90;;;;;;5094413;28;20024;-61
2021/01/28 12:35:56;;;;;;;5.47;3.20;;;6.70;99.90;;;;;;5095254;28;20057;-62
2021/01/28 12:38:22;;;;;;;5.18;3.10;;;6.60;99.90;;;;;;5093641;28;20044;-64
2021/01/28 12:40:47;;;;;;;5.28;3.30;;;6.50;99.90;;;;;;5092924;28;20039;-64
2021/01/28 12:43:13;;;;;;;4.40;3.05;;;6.50;99.90;;;;;;5092164;28;20054;-63
2021/01/28 12:45:39;;;;;;;3.90;3.03;;;6.50;99.90;;;;;;5093071;28;20094;-62
2021/01/28 12:48:05;;;;;;;3.85;3.50;;;6.50;99.90;;;;;;5094433;28;20477;-65
2021/01/28 12:50:31;;;;;;;7.05;4.05;;;6.60;99.90;;;;;;5092275;28;20020;-61
2021/01/28 12:52:57;;;;;;;5.55;4.20;;;6.60;99.90;;;;;;5094849;28;20451;-62
2021/01/28 12:55:23;;;;;;;4.10;3.70;;;6.60;99.90;;;;;;5093908;28;20028;-63
2021/01/28 12:57:49;;;;;;;5.25;3.60;;;6.60;99.90;;;;;;5092992;28;20028;-63
2021/01/28 13:00:18;;;;;;;3.15;2.83;;;6.60;99.90;;;;;;5092915;28;20077;-62
2021/01/28 13:02:44;;;;;;;5.20;3.85;;;6.60;99.90;;;;;;5094395;28;20020;-63
2021/01/28 13:05:11;;;;;;;6.65;3.60;;;6.60;99.90;;;;;;5092372;28;20041;-66
2021/01/28 13:07:36;;;;;;;5.15;3.90;;;6.60;99.90;;;;;;5093466;28;20024;-62